createdAt,value
2019-04-22T00:01:32.671Z,16.26
2019-04-22T00:06:57.413Z,16.20
2019-04-22T00:12:09.298Z,16.05
2019-04-22T00:17:11.316Z,15.87
2019-04-22T00:22:10.064Z,15.53
2019-04-22T00:27:17.149Z,15.13
2019-04-22T00:32:11.457Z,15.28
2019-04-22T00:37:17.592Z,14.93
2019-04-22T00:42:24.325Z,14.59
2019-04-22T00:47:27.955Z,14.55
2019-04-22T00:52:28.189Z,14.65
2019-04-22T00:57:27.853Z,14.74
2019-04-22T01:02:36.040Z,14.80
2019-04-22T01:07:30.110Z,14.60
2019-04-22T01:12:41.200Z,14.58
2019-04-22T01:17:43.521Z,14.37
2019-04-22T01:22:34.611Z,14.65
2019-04-22T01:27:34.877Z,14.57
2019-04-22T01:32:27.337Z,14.44
2019-04-22T01:37:43.317Z,14.40
2019-04-22T01:42:56.000Z,14.57
2019-04-22T01:48:10.919Z,14.55
2019-04-22T01:52:59.036Z,14.49
2019-04-22T01:57:54.125Z,14.23
2019-04-22T02:03:05.107Z,14.24
2019-04-22T02:08:04.396Z,14.61
2019-04-22T02:13:06.976Z,14.82
2019-04-22T02:18:17.926Z,14.94
2019-04-22T02:28:32.609Z,14.95
2019-04-22T02:33:52.545Z,14.93
2019-04-22T02:58:55.063Z,14.71
2019-04-22T03:04:03.386Z,14.66
2019-04-22T03:08:53.798Z,14.58
2019-04-22T03:13:55.095Z,14.43
2019-04-22T03:44:19.386Z,13.75
2019-04-22T03:49:23.980Z,13.70
2019-04-22T03:54:19.149Z,13.78
2019-04-22T03:59:29.525Z,13.63
2019-04-22T04:29:51.076Z,13.90
2019-04-22T04:39:36.428Z,14.01
2019-04-22T04:49:43.527Z,14.05
2019-04-22T05:00:11.244Z,14.08
2019-04-22T05:04:59.476Z,14.15
2019-04-22T05:09:47.316Z,14.33
2019-04-22T05:14:46.166Z,14.41
2019-04-22T05:19:50.279Z,14.52
2019-04-22T05:24:56.902Z,14.75
2019-04-22T05:35:26.608Z,15.00
2019-04-22T05:40:38.811Z,15.21
2019-04-22T05:45:27.965Z,15.39
2019-04-22T05:50:27.020Z,15.58
2019-04-22T05:55:38.112Z,15.70
2019-04-22T06:01:04.246Z,15.94
2019-04-22T06:10:50.399Z,17.10
2019-04-22T06:15:40.412Z,17.77
2019-04-22T06:20:53.851Z,18.18
2019-04-22T06:30:57.524Z,18.52
2019-04-22T06:35:56.294Z,18.78
2019-04-22T06:41:04.073Z,18.95
2019-04-22T06:46:02.086Z,19.02
2019-04-22T06:51:00.196Z,19.27
2019-04-22T06:56:05.185Z,19.85
2019-04-22T07:01:09.564Z,20.59
2019-04-22T07:06:13.010Z,21.13
2019-04-22T07:11:07.867Z,21.36
2019-04-22T07:16:23.349Z,21.81
2019-04-22T07:21:14.372Z,21.91
2019-04-22T07:26:20.352Z,21.68
2019-04-22T07:31:24.866Z,22.11
2019-04-22T07:41:32.841Z,22.47
2019-04-22T07:46:39.229Z,23.27
2019-04-22T07:51:32.907Z,23.38
2019-04-22T07:56:36.816Z,23.66
2019-04-22T08:01:35.481Z,24.20
2019-04-22T08:06:57.112Z,25.03
2019-04-22T08:16:51.325Z,30.19
2019-04-22T08:21:50.643Z,40.41
2019-04-22T08:26:54.713Z,46.27
2019-04-22T08:31:56.621Z,48.22
2019-04-22T08:37:34.279Z,50.59
2019-04-22T08:41:53.698Z,51.42
2019-04-22T08:47:13.872Z,52.71
2019-04-22T09:02:17.442Z,51.93
2019-04-22T09:12:14.539Z,53.46
2019-04-22T09:17:17.313Z,53.14
2019-04-22T09:22:16.867Z,55.11
2019-04-22T09:27:25.114Z,53.85
2019-04-22T09:32:29.659Z,53.00
2019-04-22T09:37:34.536Z,54.48
2019-04-22T09:42:37.143Z,54.01
2019-04-22T09:47:34.974Z,54.49
2019-04-22T09:52:37.587Z,55.38
2019-04-22T09:57:33.901Z,54.46
2019-04-22T10:02:40.633Z,54.85
2019-04-22T10:07:39.489Z,54.08
2019-04-22T10:12:43.188Z,54.20
2019-04-22T10:17:47.452Z,52.08
2019-04-22T10:27:55.500Z,44.53
2019-04-22T10:32:47.307Z,41.59
2019-04-22T10:37:30.121Z,42.56
2019-04-22T10:42:33.485Z,37.06
2019-04-22T10:47:34.423Z,35.75
2019-04-22T10:52:37.233Z,34.23
2019-04-22T10:57:39.336Z,35.04
2019-04-22T11:02:41.796Z,38.93
2019-04-22T11:07:51.952Z,36.97
2019-04-22T11:12:47.145Z,34.68
2019-04-22T11:17:49.629Z,32.04
2019-04-22T11:22:53.061Z,31.55
2019-04-22T11:27:55.677Z,33.15
2019-04-22T11:32:56.573Z,33.16
2019-04-22T11:37:59.231Z,32.23
2019-04-22T11:43:01.872Z,31.47
2019-04-22T11:48:03.977Z,32.17
2019-04-22T11:53:07.101Z,33.01
2019-04-22T11:58:08.900Z,32.75
2019-04-22T12:03:12.502Z,33.51
2019-04-22T12:08:15.266Z,35.91
2019-04-22T12:13:17.759Z,40.96
2019-04-22T12:18:19.543Z,41.98
2019-04-22T12:23:21.303Z,43.09
2019-04-22T12:28:23.747Z,42.98
2019-04-22T12:33:27.726Z,41.00
2019-04-22T12:38:29.437Z,34.55
2019-04-22T12:43:31.852Z,30.69
2019-04-22T12:48:34.935Z,29.40
2019-04-22T12:53:36.209Z,29.13
2019-04-22T12:58:38.613Z,29.18
2019-04-22T13:03:42.481Z,29.35
2019-04-22T13:08:43.670Z,29.98
2019-04-22T13:13:47.061Z,29.51
2019-04-22T13:18:55.402Z,29.06
2019-04-22T13:23:50.921Z,29.02
2019-04-22T13:28:54.746Z,29.25
2019-04-22T13:33:59.703Z,29.90
2019-04-22T13:38:58.732Z,30.09
2019-04-22T13:44:02.028Z,30.41
2019-04-22T13:54:01.901Z,30.98
2019-04-22T13:59:19.901Z,30.34
2019-04-22T14:04:14.483Z,29.39
2019-04-22T14:09:17.229Z,28.55
2019-04-22T14:14:20.027Z,27.61
2019-04-22T14:19:21.025Z,27.78
2019-04-22T14:24:23.824Z,27.68
2019-04-22T14:29:26.105Z,27.40
2019-04-22T14:34:28.667Z,26.97
2019-04-22T14:39:30.867Z,26.87
2019-04-22T14:49:58.991Z,27.50
2019-04-22T14:54:51.923Z,27.42
2019-04-22T14:59:41.936Z,27.04
2019-04-22T15:04:43.241Z,27.05
2019-04-22T15:09:46.235Z,27.16
2019-04-22T15:14:48.329Z,27.18
2019-04-22T15:19:53.978Z,27.04
2019-04-22T15:24:56.694Z,27.22
2019-04-22T15:29:59.172Z,27.35
2019-04-22T15:35:01.781Z,27.19
2019-04-22T15:40:04.720Z,27.02
2019-04-22T15:45:08.693Z,27.06
2019-04-22T15:50:10.127Z,27.18
2019-04-22T15:55:11.177Z,27.14
2019-04-22T16:00:28.090Z,27.19
2019-04-22T16:05:17.128Z,27.25
2019-04-22T16:10:19.757Z,27.27
2019-04-22T16:15:22.469Z,27.05
2019-04-22T16:20:23.569Z,27.18
2019-04-22T16:25:45.228Z,27.19
2019-04-22T16:30:46.417Z,26.85
2019-04-22T16:35:49.087Z,26.72
2019-04-22T16:40:52.724Z,26.58
2019-04-22T16:45:53.905Z,26.39
2019-04-22T16:50:56.947Z,26.26
2019-04-22T16:55:59.191Z,26.12
2019-04-22T17:01:02.783Z,25.95
2019-04-22T17:06:17.397Z,25.83
2019-04-22T17:11:20.014Z,25.62
2019-04-22T17:16:20.948Z,25.46
2019-04-22T17:21:23.721Z,25.25
2019-04-22T17:26:26.485Z,25.11
2019-04-22T17:31:28.962Z,24.91
2019-04-22T17:36:31.960Z,24.70
2019-04-22T17:41:50.620Z,24.48
2019-04-22T17:47:05.195Z,24.32
2019-04-22T17:52:32.785Z,24.07
2019-04-22T17:57:25.345Z,23.87
2019-04-22T18:02:19.287Z,23.73
2019-04-22T18:07:31.178Z,23.46
2019-04-22T18:12:34.022Z,23.36
2019-04-22T18:17:35.166Z,23.20
2019-04-22T18:22:21.931Z,23.08
2019-04-22T18:27:49.098Z,22.86
2019-04-22T18:32:30.786Z,22.83
2019-04-22T18:37:41.539Z,22.63
2019-04-22T18:42:48.810Z,22.46
2019-04-22T18:47:42.626Z,22.38
2019-04-22T18:52:49.330Z,22.30
2019-04-22T18:57:44.062Z,22.14
2019-04-22T19:02:44.017Z,22.06
2019-04-22T19:08:07.497Z,21.98
2019-04-22T19:13:41.374Z,21.93
2019-04-22T19:18:18.982Z,21.81
2019-04-22T19:23:16.376Z,21.76
2019-04-22T19:28:18.950Z,21.72
2019-04-22T19:33:22.252Z,21.63
2019-04-22T19:38:11.268Z,21.51
2019-04-22T19:43:24.090Z,21.46
2019-04-22T19:48:33.416Z,21.41
2019-04-22T19:53:32.177Z,21.36
2019-04-22T19:58:24.127Z,21.31
2019-04-22T20:03:49.644Z,21.25
2019-04-22T20:08:48.833Z,21.20
2019-04-22T20:13:49.927Z,21.14
2019-04-22T20:18:52.410Z,21.13
2019-04-22T20:23:45.692Z,21.12
2019-04-22T20:28:52.782Z,21.06
2019-04-22T20:34:03.383Z,20.97
2019-04-22T20:38:59.590Z,20.91
2019-04-22T20:44:05.150Z,20.84
2019-04-22T20:49:04.754Z,20.73
2019-04-22T20:54:08.889Z,20.68
2019-04-22T20:59:08.529Z,20.63
2019-04-22T21:03:59.135Z,20.51
2019-04-22T21:09:18.471Z,20.40
2019-04-22T21:14:14.807Z,20.32
2019-04-22T21:19:27.707Z,20.24
2019-04-22T21:24:20.546Z,20.19
2019-04-22T21:29:21.832Z,20.06
2019-04-22T21:34:26.255Z,20.00
2019-04-22T21:39:26.356Z,19.91
2019-04-22T21:44:32.699Z,19.83
2019-04-22T21:49:37.463Z,19.78
2019-04-22T21:54:42.471Z,19.66
2019-04-22T21:59:44.821Z,19.55
2019-04-22T22:04:38.616Z,19.46
2019-04-22T22:09:49.121Z,19.36
2019-04-22T22:14:48.934Z,19.28
2019-04-22T22:19:48.520Z,19.21
2019-04-22T22:24:54.743Z,19.10
2019-04-22T22:30:06.634Z,19.00
2019-04-22T22:34:58.754Z,18.93
2019-04-22T22:39:51.246Z,18.82
2019-04-22T22:44:47.756Z,18.74
2019-04-22T22:50:03.129Z,18.70
2019-04-22T22:55:12.003Z,18.58
2019-04-22T23:00:03.878Z,18.51
2019-04-22T23:05:20.029Z,18.37
2019-04-22T23:10:16.130Z,18.28
2019-04-22T23:15:18.590Z,18.24
2019-04-22T23:20:00.049Z,18.14
2019-04-22T23:25:50.041Z,18.02
2019-04-22T23:30:27.618Z,18.00
2019-04-22T23:35:43.077Z,17.90
2019-04-22T23:40:50.668Z,17.85
2019-04-22T23:45:54.097Z,17.76
2019-04-22T23:50:50.842Z,17.73
2019-04-22T23:55:58.161Z,17.66
